createdAt,value
2022-12-06T00:01:38.555Z,7.10
2022-12-06T00:04:07.453Z,6.83
2022-12-06T00:06:41.291Z,6.90
2022-12-06T00:09:08.258Z,7.03
2022-12-06T00:11:36.362Z,7.27
2022-12-06T00:14:05.704Z,7.30
2022-12-06T00:16:33.541Z,6.40
2022-12-06T00:19:00.934Z,7.60
2022-12-06T00:21:33.039Z,7.33
2022-12-06T00:24:07.124Z,7.20
2022-12-06T00:26:36.602Z,7.00
2022-12-06T00:29:04.075Z,6.67
2022-12-06T00:31:31.745Z,6.67
2022-12-06T00:33:58.999Z,6.93
2022-12-06T00:36:28.694Z,6.80
2022-12-06T00:38:56.038Z,6.80
2022-12-06T00:41:24.492Z,6.83
2022-12-06T00:43:52.055Z,6.80
2022-12-06T00:46:22.928Z,6.13
2022-12-06T00:48:50.604Z,6.37
2022-12-06T00:51:18.153Z,6.90
2022-12-06T00:53:45.252Z,6.97
2022-12-06T00:56:12.237Z,6.53
2022-12-06T00:58:46.841Z,6.17
2022-12-06T01:01:25.604Z,6.47
2022-12-06T01:03:55.439Z,6.37
2022-12-06T01:06:27.391Z,6.20
2022-12-06T01:08:55.639Z,6.63
2022-12-06T01:11:23.376Z,6.20
2022-12-06T01:13:52.785Z,6.47
2022-12-06T01:16:27.543Z,6.50
2022-12-06T01:18:57.371Z,5.90
2022-12-06T01:21:24.887Z,6.10
2022-12-06T01:23:55.311Z,6.13
2022-12-06T01:26:28.174Z,6.00
2022-12-06T01:28:55.219Z,5.80
2022-12-06T01:31:22.039Z,6.03
2022-12-06T01:33:48.754Z,6.27
2022-12-06T01:36:20.300Z,5.77
2022-12-06T01:38:58.257Z,6.53
2022-12-06T01:41:26.763Z,5.80
2022-12-06T01:43:56.755Z,5.53
2022-12-06T01:46:43.307Z,5.90
2022-12-06T01:49:12.968Z,5.70
2022-12-06T01:51:54.293Z,5.20
2022-12-06T01:54:21.364Z,5.90
2022-12-06T01:56:49.324Z,6.10
2022-12-06T01:59:16.609Z,5.47
2022-12-06T02:01:43.684Z,5.83
2022-12-06T02:04:10.580Z,6.13
2022-12-06T02:06:37.593Z,5.57
2022-12-06T02:09:06.571Z,5.37
2022-12-06T02:11:35.428Z,5.60
2022-12-06T02:14:04.596Z,5.63
2022-12-06T02:17:03.973Z,5.67
2022-12-06T02:20:04.158Z,5.60
2022-12-06T02:22:39.303Z,5.37
2022-12-06T02:25:31.499Z,5.13
2022-12-06T02:28:38.357Z,5.17
2022-12-06T02:31:17.366Z,5.43
2022-12-06T02:34:23.442Z,5.27
2022-12-06T02:37:01.620Z,5.00
2022-12-06T02:39:34.991Z,5.37
2022-12-06T02:42:08.953Z,5.30
2022-12-06T02:44:41.295Z,5.47
2022-12-06T02:47:09.609Z,5.20
2022-12-06T02:49:38.416Z,5.43
2022-12-06T02:52:05.181Z,5.30
2022-12-06T02:54:32.101Z,5.37
2022-12-06T02:57:00.678Z,5.60
2022-12-06T02:59:27.525Z,5.37
2022-12-06T03:01:58.685Z,5.60
2022-12-06T03:04:34.516Z,5.50
2022-12-06T03:07:12.230Z,5.23
2022-12-06T03:09:57.032Z,5.23
2022-12-06T03:12:38.847Z,5.60
2022-12-06T03:15:34.268Z,5.50
2022-12-06T03:18:19.082Z,5.43
2022-12-06T03:20:55.004Z,5.50
2022-12-06T03:23:25.370Z,5.30
2022-12-06T03:25:52.898Z,5.10
2022-12-06T03:28:21.061Z,5.50
2022-12-06T03:30:51.335Z,5.17
2022-12-06T03:33:21.654Z,5.60
2022-12-06T03:35:50.566Z,5.27
2022-12-06T03:38:42.002Z,5.60
2022-12-06T03:41:09.167Z,5.30
2022-12-06T03:43:35.920Z,5.63
2022-12-06T03:46:46.181Z,5.23
2022-12-06T03:49:33.327Z,5.50
2022-12-06T03:52:00.070Z,5.83
2022-12-06T03:54:26.941Z,5.13
2022-12-06T03:56:54.275Z,5.43
2022-12-06T03:59:20.981Z,6.03
2022-12-06T04:01:47.687Z,5.83
2022-12-06T04:04:14.441Z,6.00
2022-12-06T04:06:41.262Z,5.57
2022-12-06T04:09:26.317Z,6.10
2022-12-06T04:16:30.638Z,6.00
2022-12-06T04:18:57.346Z,5.80
2022-12-06T04:21:32.816Z,5.50
2022-12-06T04:24:00.443Z,6.10
2022-12-06T04:26:29.242Z,6.27
2022-12-06T04:29:14.483Z,5.30
2022-12-06T04:32:00.235Z,5.80
2022-12-06T04:34:45.951Z,5.87
2022-12-06T04:37:31.384Z,6.07
2022-12-06T04:39:58.305Z,5.53
2022-12-06T04:42:44.148Z,6.10
2022-12-06T04:45:11.108Z,5.87
2022-12-06T04:47:39.336Z,5.80
2022-12-06T04:50:06.786Z,5.60
2022-12-06T04:52:36.036Z,5.90
2022-12-06T04:55:06.460Z,5.43
2022-12-06T04:57:33.261Z,5.87
2022-12-06T05:00:00.273Z,5.87
2022-12-06T05:02:27.314Z,5.60
2022-12-06T05:04:53.901Z,5.77
2022-12-06T05:07:20.513Z,5.90
2022-12-06T05:09:48.509Z,5.73
2022-12-06T05:12:16.276Z,5.97
2022-12-06T05:14:42.927Z,5.60
2022-12-06T05:17:09.546Z,6.00
2022-12-06T05:19:36.224Z,5.60
2022-12-06T05:22:03.042Z,6.00
2022-12-06T05:24:30.201Z,5.40
2022-12-06T05:26:58.135Z,5.97
2022-12-06T05:29:24.999Z,5.97
2022-12-06T05:31:51.856Z,5.90
2022-12-06T05:34:18.975Z,5.27
2022-12-06T05:36:46.093Z,5.80
2022-12-06T05:39:12.934Z,5.23
2022-12-06T05:41:39.767Z,5.83
2022-12-06T05:44:06.603Z,5.63
2022-12-06T05:46:33.440Z,5.23
2022-12-06T05:49:00.105Z,4.90
2022-12-06T05:51:26.826Z,5.47
2022-12-06T05:53:53.661Z,5.97
2022-12-06T05:56:20.445Z,5.80
2022-12-06T05:58:47.204Z,5.40
2022-12-06T06:01:14.023Z,5.50
2022-12-06T06:03:46.920Z,5.50
2022-12-06T06:06:14.793Z,5.23
2022-12-06T06:08:41.716Z,5.17
2022-12-06T06:11:09.398Z,5.80
2022-12-06T06:13:36.251Z,5.30
2022-12-06T06:16:03.070Z,5.30
2022-12-06T06:18:29.858Z,5.47
2022-12-06T06:21:00.371Z,5.20
2022-12-06T06:23:28.194Z,6.00
2022-12-06T06:25:55.274Z,5.10
2022-12-06T06:28:22.721Z,5.40
2022-12-06T06:30:50.142Z,5.33
2022-12-06T06:33:17.416Z,5.50
2022-12-06T06:35:46.537Z,5.20
2022-12-06T06:38:13.412Z,5.80
2022-12-06T06:40:40.236Z,5.37
2022-12-06T06:43:20.127Z,5.47
2022-12-06T06:46:13.345Z,5.53
2022-12-06T06:48:40.253Z,5.20
2022-12-06T06:51:09.598Z,5.60
2022-12-06T06:53:37.422Z,5.87
2022-12-06T06:56:04.889Z,5.43
2022-12-06T06:58:31.866Z,5.63
2022-12-06T07:01:00.774Z,5.50
2022-12-06T07:03:28.332Z,5.50
2022-12-06T07:05:57.424Z,5.60
2022-12-06T07:08:25.862Z,6.07
2022-12-06T07:10:54.560Z,6.00
2022-12-06T07:13:23.048Z,5.40
2022-12-06T07:15:50.156Z,5.43
2022-12-06T07:18:17.505Z,5.83
2022-12-06T07:20:45.919Z,5.57
2022-12-06T07:23:13.558Z,5.50
2022-12-06T07:25:40.498Z,5.37
2022-12-06T07:28:07.385Z,5.17
2022-12-06T07:30:34.315Z,5.53
2022-12-06T07:33:01.162Z,5.20
2022-12-06T07:35:48.391Z,5.33
2022-12-06T07:38:14.754Z,4.87
2022-12-06T07:41:03.564Z,5.30
2022-12-06T07:43:47.057Z,5.17
2022-12-06T07:46:14.055Z,5.53
2022-12-06T07:48:41.354Z,5.60
2022-12-06T07:51:08.495Z,5.03
2022-12-06T07:53:35.358Z,5.17
2022-12-06T07:56:08.755Z,5.93
2022-12-06T07:58:35.694Z,5.13
2022-12-06T08:01:04.153Z,5.43
2022-12-06T08:03:31.175Z,5.60
2022-12-06T08:05:58.123Z,5.60
2022-12-06T08:08:28.443Z,5.20
2022-12-06T08:10:59.871Z,5.33
2022-12-06T08:13:26.865Z,5.27
2022-12-06T08:15:53.649Z,5.47
2022-12-06T08:18:20.431Z,5.23
2022-12-06T08:20:48.920Z,5.10
2022-12-06T08:23:17.801Z,5.30
2022-12-06T08:25:44.959Z,5.33
2022-12-06T08:28:13.458Z,5.43
2022-12-06T08:30:41.351Z,5.10
2022-12-06T08:33:08.326Z,5.20
2022-12-06T08:35:37.624Z,5.23
2022-12-06T08:38:04.446Z,4.83
2022-12-06T08:40:31.556Z,5.10
2022-12-06T08:42:58.522Z,4.77
2022-12-06T08:45:25.345Z,4.53
2022-12-06T08:47:52.198Z,4.60
2022-12-06T08:50:19.112Z,4.50
2022-12-06T08:52:46.044Z,4.37
2022-12-06T08:55:12.853Z,4.70
2022-12-06T08:57:39.605Z,4.67
2022-12-06T09:00:08.255Z,4.60
2022-12-06T09:02:34.960Z,4.37
2022-12-06T09:05:02.201Z,4.30
2022-12-06T09:07:28.938Z,4.30
2022-12-06T09:09:55.906Z,4.23
2022-12-06T09:12:23.386Z,3.90
2022-12-06T09:14:50.621Z,4.20
2022-12-06T09:17:17.441Z,3.90
2022-12-06T09:19:44.346Z,4.07
2022-12-06T09:22:11.168Z,4.00
2022-12-06T09:24:37.945Z,3.90
2022-12-06T09:27:04.844Z,4.20
2022-12-06T09:29:34.860Z,4.40
2022-12-06T09:32:04.605Z,4.17
2022-12-06T09:34:31.701Z,3.60
2022-12-06T09:37:03.768Z,3.80
2022-12-06T09:39:37.375Z,4.07
2022-12-06T09:42:23.146Z,4.30
2022-12-06T09:45:23.890Z,4.10
2022-12-06T09:48:15.714Z,3.93
2022-12-06T09:51:19.765Z,4.27
2022-12-06T09:54:08.007Z,3.90
2022-12-06T09:57:08.128Z,4.20
2022-12-06T09:59:55.304Z,4.33
2022-12-06T10:02:56.133Z,4.23
2022-12-06T10:05:25.846Z,4.40
2022-12-06T10:08:09.396Z,4.93
2022-12-06T10:10:39.029Z,4.93
2022-12-06T10:13:37.490Z,4.93
2022-12-06T10:16:28.842Z,4.97
2022-12-06T10:19:17.422Z,5.07
2022-12-06T10:22:10.386Z,4.80
2022-12-06T10:25:09.753Z,5.27
2022-12-06T10:27:40.091Z,5.47
2022-12-06T10:30:15.065Z,5.40
2022-12-06T10:32:55.138Z,5.33
2022-12-06T10:35:47.635Z,5.20
2022-12-06T10:38:23.178Z,5.67
2022-12-06T10:41:08.617Z,5.50
2022-12-06T10:43:58.298Z,5.60
2022-12-06T10:47:05.409Z,5.37
2022-12-06T10:49:42.153Z,5.20
2022-12-06T10:52:23.351Z,5.43
2022-12-06T10:54:57.755Z,5.33
2022-12-06T10:57:47.390Z,5.17
2022-12-06T11:00:15.880Z,4.53
2022-12-06T11:03:11.664Z,5.13
2022-12-06T11:05:59.283Z,5.17
2022-12-06T11:08:34.123Z,4.83
2022-12-06T11:11:01.823Z,4.90
2022-12-06T11:13:42.193Z,4.40
2022-12-06T11:16:22.163Z,4.87
2022-12-06T11:18:49.506Z,4.70
2022-12-06T11:21:41.407Z,4.17
2022-12-06T11:24:36.592Z,4.20
2022-12-06T11:27:13.712Z,4.57
2022-12-06T11:29:42.990Z,4.20
2022-12-06T11:32:11.421Z,3.93
2022-12-06T11:34:57.156Z,4.40
2022-12-06T11:37:26.979Z,4.27
2022-12-06T11:40:07.554Z,3.90
2022-12-06T11:42:34.359Z,3.83
2022-12-06T11:45:07.756Z,3.70
2022-12-06T11:47:34.987Z,3.87
2022-12-06T11:50:08.508Z,3.80
2022-12-06T11:52:44.542Z,3.80
2022-12-06T11:55:21.304Z,3.80
2022-12-06T11:57:56.423Z,3.57
2022-12-06T12:00:24.996Z,3.23
2022-12-06T12:02:53.846Z,3.27
2022-12-06T12:05:30.903Z,3.70
2022-12-06T12:08:16.271Z,3.50
2022-12-06T12:10:44.657Z,3.57
2022-12-06T12:13:30.049Z,3.50
2022-12-06T12:16:02.978Z,3.30
2022-12-06T12:18:33.687Z,3.00
2022-12-06T12:21:00.728Z,3.20
2022-12-06T12:23:45.508Z,3.23
2022-12-06T12:26:17.882Z,3.10
2022-12-06T12:28:46.572Z,2.93
2022-12-06T12:31:21.547Z,3.20
2022-12-06T12:33:49.202Z,3.17
2022-12-06T12:36:27.614Z,3.00
2022-12-06T12:39:02.418Z,3.10
2022-12-06T12:41:44.120Z,2.93
2022-12-06T12:47:15.296Z,2.80
2022-12-06T12:49:42.196Z,2.90
2022-12-06T12:52:37.588Z,3.07
2022-12-06T12:55:19.067Z,2.73
2022-12-06T12:57:48.284Z,3.10
2022-12-06T13:00:16.925Z,2.80
2022-12-06T13:02:46.399Z,2.90
2022-12-06T13:05:35.169Z,2.80
2022-12-06T13:08:10.871Z,2.70
2022-12-06T13:10:39.576Z,2.80
2022-12-06T13:13:20.081Z,2.90
2022-12-06T13:15:52.118Z,2.57
2022-12-06T13:18:32.448Z,3.10
2022-12-06T13:21:01.712Z,2.80
2022-12-06T13:23:34.610Z,2.77
2022-12-06T13:26:16.447Z,3.00
2022-12-06T13:28:50.419Z,2.80
2022-12-06T13:31:19.987Z,3.10
2022-12-06T13:33:54.243Z,2.93
2022-12-06T13:36:22.156Z,2.83
2022-12-06T13:38:49.199Z,2.60
2022-12-06T13:41:58.954Z,2.90
2022-12-06T13:44:50.587Z,2.80
2022-12-06T13:47:49.570Z,2.70
2022-12-06T13:50:19.230Z,2.70
2022-12-06T13:52:45.939Z,3.03
2022-12-06T13:55:24.951Z,2.80
2022-12-06T13:57:51.658Z,2.67
2022-12-06T14:00:30.573Z,2.80
2022-12-06T14:03:13.306Z,2.73
2022-12-06T14:06:14.887Z,2.50
2022-12-06T14:08:47.034Z,2.90
2022-12-06T14:11:17.074Z,2.90
2022-12-06T14:13:46.552Z,2.80
2022-12-06T14:16:23.720Z,2.60
2022-12-06T14:18:51.118Z,2.73
2022-12-06T14:21:31.298Z,2.67
2022-12-06T14:23:58.611Z,2.73
2022-12-06T14:26:28.384Z,2.90
2022-12-06T14:28:58.244Z,2.70
2022-12-06T14:31:34.221Z,2.73
2022-12-06T14:34:01.071Z,2.80
2022-12-06T14:36:30.686Z,2.83
2022-12-06T14:39:01.447Z,2.70
2022-12-06T14:41:52.866Z,2.90
2022-12-06T14:44:21.857Z,3.07
2022-12-06T14:46:49.945Z,2.50
2022-12-06T14:49:38.483Z,2.83
2022-12-06T14:52:26.743Z,2.70
2022-12-06T14:55:10.111Z,2.63
2022-12-06T14:57:39.666Z,2.60
2022-12-06T15:00:16.894Z,3.00
2022-12-06T15:03:11.411Z,2.90
2022-12-06T15:05:41.173Z,2.57
2022-12-06T15:08:33.845Z,3.13
2022-12-06T15:11:02.576Z,2.90
2022-12-06T15:13:30.005Z,3.00
2022-12-06T15:16:09.036Z,2.97
2022-12-06T15:19:06.403Z,2.87
2022-12-06T15:21:34.762Z,2.80
2022-12-06T15:24:01.727Z,3.00
2022-12-06T15:26:28.562Z,2.90
2022-12-06T15:28:55.465Z,3.20
2022-12-06T15:31:30.112Z,2.90
2022-12-06T15:33:57.097Z,3.00
2022-12-06T15:36:30.921Z,3.03
2022-12-06T15:38:57.938Z,3.00
2022-12-06T15:41:28.955Z,3.00
2022-12-06T15:43:57.636Z,2.90
2022-12-06T15:46:29.188Z,3.00
2022-12-06T15:48:56.518Z,2.70
2022-12-06T15:51:26.435Z,3.20
2022-12-06T15:53:55.208Z,3.23
2022-12-06T15:56:23.682Z,2.67
2022-12-06T15:58:51.363Z,2.93
2022-12-06T16:01:31.815Z,2.90
2022-12-06T16:03:59.045Z,3.07
2022-12-06T16:06:27.208Z,2.83
2022-12-06T16:08:54.156Z,2.90
2022-12-06T16:11:23.916Z,2.93
2022-12-06T16:13:51.265Z,2.60
2022-12-06T16:16:20.352Z,2.80
2022-12-06T16:18:48.525Z,3.00
2022-12-06T16:21:21.113Z,3.00
2022-12-06T16:24:13.390Z,2.70
2022-12-06T16:26:43.829Z,2.80
2022-12-06T16:29:14.554Z,3.07
2022-12-06T16:31:41.672Z,2.70
2022-12-06T16:34:08.805Z,3.17
2022-12-06T16:37:01.603Z,3.00
2022-12-06T16:39:30.024Z,2.97
2022-12-06T16:41:58.196Z,3.20
2022-12-06T16:44:25.620Z,2.87
2022-12-06T16:46:52.931Z,3.03
2022-12-06T16:52:11.794Z,3.00
2022-12-06T16:54:41.053Z,3.07
2022-12-06T16:57:08.554Z,2.90
2022-12-06T16:59:36.294Z,3.23
2022-12-06T17:02:05.936Z,3.00
2022-12-06T17:04:36.219Z,3.10
2022-12-06T17:07:02.966Z,3.17
2022-12-06T17:09:31.587Z,3.00
2022-12-06T17:12:06.389Z,2.90
2022-12-06T17:14:33.508Z,3.10
2022-12-06T17:17:04.029Z,3.20
2022-12-06T17:19:33.137Z,3.30
2022-12-06T17:22:06.158Z,3.57
2022-12-06T17:24:33.263Z,3.30
2022-12-06T17:27:00.078Z,3.17
2022-12-06T17:29:27.371Z,2.97
2022-12-06T17:31:55.350Z,3.27
2022-12-06T17:34:23.307Z,3.33
2022-12-06T17:36:51.690Z,3.27
2022-12-06T17:39:19.778Z,3.20
2022-12-06T17:44:57.725Z,3.17
2022-12-06T17:47:24.881Z,3.20
2022-12-06T17:49:52.865Z,3.00
2022-12-06T17:52:20.094Z,3.00
2022-12-06T17:54:50.183Z,3.20
2022-12-06T17:57:18.288Z,3.13
2022-12-06T17:59:47.170Z,2.80
2022-12-06T18:02:18.012Z,3.40
2022-12-06T18:04:46.395Z,3.43
2022-12-06T18:07:13.839Z,2.83
2022-12-06T18:09:40.886Z,3.20
2022-12-06T18:12:11.905Z,3.40
2022-12-06T18:14:39.313Z,3.17
2022-12-06T18:17:06.532Z,3.20
2022-12-06T18:19:33.606Z,3.07
2022-12-06T18:22:00.343Z,2.90
2022-12-06T18:24:35.417Z,3.00
2022-12-06T18:27:04.215Z,3.10
2022-12-06T18:29:40.376Z,2.97
2022-12-06T18:32:07.265Z,2.93
2022-12-06T18:34:37.409Z,3.20
2022-12-06T18:37:06.548Z,2.90
2022-12-06T18:39:34.221Z,3.10
2022-12-06T18:42:01.325Z,2.97
2022-12-06T18:44:28.795Z,3.30
2022-12-06T18:46:55.546Z,3.17
2022-12-06T18:49:22.277Z,2.90
2022-12-06T18:51:50.711Z,3.33
2022-12-06T18:54:17.633Z,2.83
2022-12-06T18:56:44.359Z,3.30
2022-12-06T18:59:11.896Z,2.93
2022-12-06T19:01:39.628Z,3.20
2022-12-06T19:04:07.950Z,3.30
2022-12-06T19:06:40.165Z,3.07
2022-12-06T19:09:16.460Z,3.23
2022-12-06T19:11:45.949Z,3.00
2022-12-06T19:14:15.796Z,3.30
2022-12-06T19:16:45.439Z,3.10
2022-12-06T19:19:17.120Z,3.10
2022-12-06T19:21:45.527Z,2.90
2022-12-06T19:24:13.984Z,3.20
2022-12-06T19:26:40.823Z,3.20
2022-12-06T19:29:08.668Z,3.30
2022-12-06T19:31:36.741Z,3.23
2022-12-06T19:34:06.263Z,3.20
2022-12-06T19:36:33.628Z,3.47
2022-12-06T19:39:06.219Z,3.47
2022-12-06T19:41:53.747Z,3.20
2022-12-06T19:44:20.627Z,2.80
2022-12-06T19:47:10.549Z,3.13
2022-12-06T19:49:48.044Z,3.33
2022-12-06T19:52:32.154Z,3.47
2022-12-06T19:55:02.526Z,3.40
2022-12-06T19:57:30.247Z,3.47
2022-12-06T19:59:57.069Z,3.30
2022-12-06T20:02:24.177Z,3.20
2022-12-06T20:04:50.964Z,3.00
2022-12-06T20:07:17.786Z,3.07
2022-12-06T20:09:44.626Z,3.23
2022-12-06T20:12:13.258Z,2.83
2022-12-06T20:14:43.139Z,3.20
2022-12-06T20:17:19.201Z,3.30
2022-12-06T20:19:46.618Z,3.43
2022-12-06T20:22:15.237Z,3.17
2022-12-06T20:24:43.277Z,3.40
2022-12-06T20:27:10.784Z,3.20
2022-12-06T20:29:44.723Z,3.17
2022-12-06T20:32:14.495Z,3.50
2022-12-06T20:34:41.762Z,3.33
2022-12-06T20:37:08.899Z,3.10
2022-12-06T20:39:41.531Z,3.30
2022-12-06T20:42:08.510Z,3.20
2022-12-06T20:44:35.573Z,3.20
2022-12-06T20:47:02.540Z,3.07
2022-12-06T20:49:29.738Z,3.20
2022-12-06T20:51:58.176Z,3.20
2022-12-06T20:54:27.432Z,2.87
2022-12-06T20:56:57.485Z,3.30
2022-12-06T21:19:28.343Z,3.17
2022-12-06T21:21:59.576Z,3.20
2022-12-06T21:24:29.669Z,3.23
2022-12-06T21:26:58.074Z,3.27
2022-12-06T21:29:30.630Z,3.60
2022-12-06T21:32:00.854Z,3.37
2022-12-06T21:34:34.283Z,3.20
2022-12-06T21:37:01.563Z,3.57
2022-12-06T21:39:28.677Z,3.03
2022-12-06T21:41:56.664Z,3.30
2022-12-06T21:44:27.111Z,3.43
2022-12-06T21:46:54.513Z,3.43
2022-12-06T21:49:21.780Z,3.30
2022-12-06T21:51:48.819Z,3.10
2022-12-06T21:54:15.836Z,3.30
2022-12-06T21:59:48.803Z,3.40
2022-12-06T22:02:30.194Z,3.20
2022-12-06T22:04:57.379Z,3.43
2022-12-06T22:07:24.691Z,3.23
2022-12-06T22:09:51.665Z,3.77
2022-12-06T22:12:18.570Z,3.40
2022-12-06T22:17:42.703Z,3.40
2022-12-06T22:20:09.861Z,3.33
2022-12-06T22:22:36.796Z,3.20
2022-12-06T22:25:04.440Z,3.60
2022-12-06T22:27:31.944Z,3.50
2022-12-06T22:29:59.035Z,3.63
2022-12-06T22:32:26.190Z,3.73
2022-12-06T22:34:53.166Z,3.60
2022-12-06T22:37:24.093Z,3.47
2022-12-06T22:39:57.411Z,3.47
2022-12-06T22:42:24.718Z,3.70
2022-12-06T22:44:52.669Z,3.53
2022-12-06T22:47:20.024Z,3.57
2022-12-06T22:49:58.375Z,3.93
2022-12-06T22:52:27.300Z,3.40
2022-12-06T22:54:54.398Z,3.17
2022-12-06T22:57:21.463Z,3.40
2022-12-06T22:59:48.767Z,3.70
2022-12-06T23:02:15.842Z,3.67
2022-12-06T23:04:44.868Z,4.00
2022-12-06T23:07:12.204Z,3.63
2022-12-06T23:09:39.529Z,3.73
2022-12-06T23:12:06.892Z,3.50
2022-12-06T23:14:34.524Z,3.43
2022-12-06T23:17:01.733Z,3.77
2022-12-06T23:19:29.634Z,3.80
2022-12-06T23:21:56.669Z,3.57
2022-12-06T23:24:24.036Z,4.00
2022-12-06T23:26:57.937Z,3.60
2022-12-06T23:29:25.967Z,3.77
2022-12-06T23:31:53.192Z,3.30
2022-12-06T23:34:25.368Z,3.67
2022-12-06T23:36:53.179Z,3.70
2022-12-06T23:39:20.172Z,3.30
2022-12-06T23:41:49.615Z,3.57
2022-12-06T23:44:16.543Z,3.87
2022-12-06T23:46:44.659Z,3.83
2022-12-06T23:49:18.268Z,3.50
2022-12-06T23:51:48.057Z,3.70
2022-12-06T23:54:17.076Z,3.53
2022-12-06T23:56:46.886Z,3.47
2022-12-06T23:59:14.890Z,3.77
